Wrangell, AK

9:59 PM PDT on April 24, 2015 (GMT -0700)
HADS | | Change Station
CLOSE
Current Station
Personal Weather Station
Location: Iskut River, BC
Elevation: 316 ft
Nearby Weather Stations

Elev 316 ft 56.71 °N, 132.13 °W | Updated 22 hours ago

Clear
Clear
45 °F
Feels Like 43 °F
N
4
Wind Variable Wind from NNE
Gusts mph

Today
High -- | Low -- °F
--% Chance of Precip.
Yesterday
High -- | Low -- °F
Precip. -- in
6:18 AM 9:16 PM
Waxing Crescent, 42% visible
Pressure 29.82 in
Visibility 10.0 miles
Clouds Few 8000 ft
Windchill 43 °F
Dew Point 34 °F
Humidity 66%
Rainfall in
Snow Depth Not available.
UV 0 out of 12
Pollen Not available.
Air Quality Not available.
Flu Activity Sporadic
METAR PAWG 250456Z 00000KT 10SM FEW080 11/02 A2982 RMK AO1 WEA: NONE (MCQ)

More Conditions Fewer Conditions

Pressure 29.82 in
Visibility 10.0 miles
Clouds Few 8000 ft
Windchill 43 °F
Dew Point 34 °F
Humidity 66%
Rainfall in
Snow Depth Not available.
UV 0 out of 12
Pollen Not available.
Air Quality Not available.
Flu Activity Sporadic
METAR PAWG 250456Z 00000KT 10SM FEW080 11/02 A2982 RMK AO1 WEA: NONE (MCQ)

More Conditions Fewer Conditions

10-Day Weather Forecast

Almanac

Astronomy

Apr. 24, 2015 Rise Set
Actual Time
Civil Twilight
Nautical Twilight
Astronomical Twilight
Moon
Length of Visible Light
Length of Day
Tomorrow will be .
, % of the Moon is Illuminated

Today's Extremes

State Highs State Lows

Community

WunderPhotos

Upload Photos

1,816,605 photos uploaded!

WunderBlogs® & News

Nearby

Air Quality

  Air Quality AQ Index Pollutant
Not available.

Snow Depth

Station Depth Elevation

Earthquake Activity

City Distance Mag. Time & Date
Minimum magnitude displayed is 2.5.

Coastal Water Temperatures

Place Temperature

Stations

Nearby Weather Stations

Station Location Temp. Windchill Dew Point Humidity Wind Precip. Elev Updated Type